createdAt,value
2022-11-29T00:01:21.313Z,23.10
2022-11-29T00:03:48.142Z,25.33
2022-11-29T00:06:18.955Z,26.02
2022-11-29T00:08:46.483Z,28.77
2022-11-29T00:11:49.294Z,30.23
2022-11-29T00:14:18.629Z,26.33
2022-11-29T00:16:45.727Z,26.20
2022-11-29T00:19:13.324Z,26.33
2022-11-29T00:21:39.914Z,28.25
2022-11-29T00:24:07.774Z,29.63
2022-11-29T00:26:34.288Z,26.98
2022-11-29T00:29:00.783Z,28.05
2022-11-29T00:31:30.463Z,28.08
2022-11-29T00:33:58.292Z,26.73
2022-11-29T00:36:25.661Z,28.98
2022-11-29T00:38:53.040Z,27.45
2022-11-29T00:41:20.521Z,26.52
2022-11-29T00:43:48.364Z,27.10
2022-11-29T00:46:15.441Z,25.75
2022-11-29T00:48:43.013Z,28.67
2022-11-29T00:51:10.136Z,25.60
2022-11-29T00:53:37.347Z,28.08
2022-11-29T00:56:05.614Z,26.77
2022-11-29T00:58:32.948Z,28.02
2022-11-29T01:00:59.624Z,26.30
2022-11-29T01:03:26.800Z,26.02
2022-11-29T01:05:53.513Z,26.60
2022-11-29T01:08:20.111Z,24.33
2022-11-29T01:10:47.180Z,26.38
2022-11-29T01:13:14.107Z,25.63
2022-11-29T01:15:41.753Z,29.75
2022-11-29T01:18:08.418Z,25.70
2022-11-29T01:20:35.496Z,26.23
2022-11-29T01:23:02.916Z,27.83
2022-11-29T01:25:29.482Z,25.95
2022-11-29T01:27:56.502Z,26.73
2022-11-29T01:30:23.051Z,23.30
2022-11-29T01:32:49.778Z,26.90
2022-11-29T01:35:16.871Z,24.48
2022-11-29T01:37:43.395Z,27.23
2022-11-29T01:40:10.428Z,26.00
2022-11-29T01:42:36.972Z,25.10
2022-11-29T01:45:20.001Z,24.67
2022-11-29T01:47:48.640Z,22.52
2022-11-29T01:50:15.757Z,20.13
2022-11-29T01:52:42.810Z,24.90
2022-11-29T01:55:10.128Z,23.90
2022-11-29T01:57:40.268Z,23.67
2022-11-29T02:00:13.589Z,22.45
2022-11-29T02:02:44.866Z,22.70
2022-11-29T02:05:15.306Z,20.20
2022-11-29T02:07:46.220Z,25.17
2022-11-29T02:10:14.494Z,26.13
2022-11-29T02:12:59.418Z,25.02
2022-11-29T02:15:49.854Z,25.88
2022-11-29T02:18:29.417Z,23.25
2022-11-29T02:21:04.891Z,25.65
2022-11-29T02:23:39.358Z,23.13
2022-11-29T02:26:36.471Z,21.08
2022-11-29T02:29:42.529Z,20.42
2022-11-29T02:32:37.029Z,20.65
2022-11-29T02:35:13.132Z,20.25
2022-11-29T02:38:17.706Z,19.88
2022-11-29T02:40:58.414Z,20.02
2022-11-29T02:43:42.610Z,19.48
2022-11-29T02:46:27.757Z,19.38
2022-11-29T02:49:09.964Z,18.83
2022-11-29T02:51:47.798Z,19.98
2022-11-29T02:54:23.953Z,18.95
2022-11-29T02:57:19.426Z,18.70
2022-11-29T02:59:55.718Z,18.55
2022-11-29T03:02:46.917Z,18.55
2022-11-29T03:05:25.797Z,14.48
2022-11-29T03:08:07.784Z,19.00
2022-11-29T03:10:53.251Z,17.88
2022-11-29T03:16:23.708Z,15.45
2022-11-29T03:18:56.341Z,17.40
2022-11-29T03:21:23.250Z,15.38
2022-11-29T03:23:53.863Z,17.73
2022-11-29T03:26:27.234Z,18.67
2022-11-29T03:29:07.914Z,18.83
2022-11-29T03:31:37.078Z,15.85
2022-11-29T03:34:27.889Z,17.60
2022-11-29T03:37:05.989Z,17.05
2022-11-29T03:39:44.680Z,18.42
2022-11-29T03:42:18.215Z,16.10
2022-11-29T03:45:10.454Z,16.08
2022-11-29T03:47:44.982Z,16.75
2022-11-29T03:50:19.618Z,15.73
2022-11-29T03:52:56.021Z,16.10
2022-11-29T03:56:04.184Z,15.35
2022-11-29T03:59:03.702Z,16.25
2022-11-29T04:01:49.197Z,16.85
2022-11-29T04:07:00.550Z,19.15
2022-11-29T04:09:34.232Z,20.52
2022-11-29T04:12:34.721Z,16.75
2022-11-29T04:15:29.417Z,16.73
2022-11-29T04:18:24.046Z,19.63
2022-11-29T04:21:18.113Z,17.92
2022-11-29T04:24:02.493Z,15.77
2022-11-29T04:26:37.970Z,18.23
2022-11-29T04:29:49.677Z,16.35
2022-11-29T04:32:50.791Z,15.82
2022-11-29T04:35:32.253Z,15.35
2022-11-29T04:38:20.630Z,15.23
2022-11-29T04:41:12.111Z,15.00
2022-11-29T04:43:44.598Z,13.70
2022-11-29T04:46:23.950Z,12.57
2022-11-29T04:49:05.402Z,12.93
2022-11-29T04:51:43.765Z,12.60
2022-11-29T04:54:47.865Z,12.88
2022-11-29T04:57:37.520Z,13.25
2022-11-29T05:00:11.012Z,12.80
2022-11-29T05:02:54.563Z,14.40
2022-11-29T05:05:30.344Z,13.90
2022-11-29T05:08:02.682Z,13.98
2022-11-29T05:10:39.654Z,15.10
2022-11-29T05:13:21.152Z,12.32
2022-11-29T05:16:09.706Z,12.25
2022-11-29T05:18:49.117Z,13.30
2022-11-29T05:21:22.256Z,12.27
2022-11-29T05:24:02.754Z,13.00
2022-11-29T05:26:31.270Z,12.38
2022-11-29T05:28:57.861Z,11.40
2022-11-29T05:31:36.690Z,13.40
2022-11-29T05:34:12.449Z,12.65
2022-11-29T05:36:54.997Z,15.55
2022-11-29T05:39:57.093Z,11.60
2022-11-29T05:43:06.839Z,12.38
2022-11-29T05:45:58.530Z,10.93
2022-11-29T05:48:45.308Z,10.95
2022-11-29T05:51:23.285Z,11.27
2022-11-29T05:54:24.200Z,10.90
2022-11-29T05:57:05.985Z,10.63
2022-11-29T05:59:35.939Z,8.70
2022-11-29T06:02:15.248Z,9.98
2022-11-29T06:04:57.472Z,9.32
2022-11-29T06:07:33.261Z,10.73
2022-11-29T06:10:05.186Z,10.80
2022-11-29T06:12:36.210Z,9.15
2022-11-29T06:15:24.534Z,12.52
2022-11-29T06:18:13.094Z,10.93
2022-11-29T06:20:46.124Z,9.73
2022-11-29T06:23:19.974Z,8.65
2022-11-29T06:26:17.035Z,8.32
2022-11-29T06:29:02.987Z,9.43
2022-11-29T06:31:39.810Z,7.60
2022-11-29T06:34:30.382Z,8.85
2022-11-29T06:37:05.194Z,10.02
2022-11-29T06:39:32.713Z,11.35
2022-11-29T06:41:59.240Z,6.88
2022-11-29T06:44:27.204Z,8.68
2022-11-29T06:47:20.466Z,8.35
2022-11-29T06:49:49.378Z,9.40
2022-11-29T06:52:34.747Z,8.77
2022-11-29T06:55:01.481Z,9.05
2022-11-29T06:57:30.928Z,7.88
2022-11-29T07:00:18.893Z,8.15
2022-11-29T07:03:14.869Z,8.52
2022-11-29T07:05:41.713Z,7.97
2022-11-29T07:08:18.700Z,7.57
2022-11-29T07:10:49.700Z,10.40
2022-11-29T07:13:18.595Z,6.47
2022-11-29T07:16:11.210Z,7.82
2022-11-29T07:18:46.634Z,6.00
2022-11-29T07:21:41.033Z,8.30
2022-11-29T07:24:36.066Z,5.72
2022-11-29T07:27:28.627Z,4.75
2022-11-29T07:30:16.990Z,6.45
2022-11-29T07:33:34.814Z,4.75
2022-11-29T07:36:44.569Z,5.80
2022-11-29T07:39:20.096Z,8.52
2022-11-29T07:41:54.234Z,6.25
2022-11-29T07:44:21.271Z,7.70
2022-11-29T07:46:47.815Z,8.40
2022-11-29T07:49:14.429Z,5.78
2022-11-29T07:51:41.040Z,5.80
2022-11-29T07:54:07.822Z,6.28
2022-11-29T07:56:34.376Z,7.10
2022-11-29T07:59:01.405Z,6.65
2022-11-29T08:01:28.098Z,6.95
2022-11-29T08:03:54.614Z,9.43
2022-11-29T08:06:27.317Z,7.78
2022-11-29T08:08:54.380Z,8.27
2022-11-29T08:11:21.507Z,8.82
2022-11-29T08:13:48.647Z,8.82
2022-11-29T08:16:18.990Z,8.88
2022-11-29T08:18:45.697Z,10.43
2022-11-29T08:21:12.809Z,10.48
2022-11-29T08:23:39.335Z,9.90
2022-11-29T08:26:06.013Z,10.38
2022-11-29T08:28:32.561Z,9.15
2022-11-29T08:31:05.111Z,9.75
2022-11-29T08:33:32.380Z,9.25
2022-11-29T08:36:18.197Z,8.15
2022-11-29T08:38:45.167Z,8.25
2022-11-29T08:41:14.286Z,8.23
2022-11-29T08:43:41.284Z,8.85
2022-11-29T08:46:13.669Z,9.82
2022-11-29T08:48:43.385Z,12.40
2022-11-29T08:51:09.979Z,7.82
2022-11-29T08:53:42.907Z,9.50
2022-11-29T08:56:41.746Z,10.48
2022-11-29T08:58:57.629Z,9.23
2022-11-29T09:01:24.214Z,7.95
2022-11-29T09:03:59.799Z,7.78
2022-11-29T09:06:28.493Z,7.03
2022-11-29T09:08:56.793Z,6.75
2022-11-29T09:11:25.101Z,7.25
2022-11-29T09:13:55.045Z,8.75
2022-11-29T09:16:25.313Z,7.45
2022-11-29T09:18:52.825Z,7.50
2022-11-29T09:21:19.376Z,8.43
2022-11-29T09:23:45.939Z,8.55
2022-11-29T09:26:18.883Z,8.32
2022-11-29T09:28:46.815Z,7.57
2022-11-29T09:31:15.852Z,7.22
2022-11-29T09:33:42.476Z,7.28
2022-11-29T09:36:11.046Z,8.05
2022-11-29T09:38:38.597Z,9.07
2022-11-29T09:41:14.191Z,8.13
2022-11-29T09:44:05.997Z,7.57
2022-11-29T09:46:47.648Z,7.05
2022-11-29T09:49:48.760Z,6.10
2022-11-29T09:52:36.631Z,6.80
2022-11-29T09:55:37.396Z,7.43
2022-11-29T09:58:09.946Z,7.22
2022-11-29T10:00:47.817Z,6.57
2022-11-29T10:03:23.336Z,6.90
2022-11-29T10:05:57.488Z,6.57
2022-11-29T10:08:41.949Z,6.77
2022-11-29T10:11:37.596Z,5.20
2022-11-29T10:14:15.509Z,6.50
2022-11-29T10:17:12.939Z,6.28
2022-11-29T10:19:52.909Z,6.72
2022-11-29T10:22:30.942Z,6.57
2022-11-29T10:25:01.707Z,6.78
2022-11-29T10:27:29.781Z,6.90
2022-11-29T10:29:59.244Z,6.50
2022-11-29T10:32:30.996Z,6.75
2022-11-29T10:35:00.646Z,5.70
2022-11-29T10:37:32.671Z,5.60
2022-11-29T10:40:08.104Z,6.13
2022-11-29T10:42:49.764Z,6.43
2022-11-29T10:45:25.413Z,6.00
2022-11-29T10:47:54.607Z,5.75
2022-11-29T10:50:30.236Z,5.97
2022-11-29T10:53:06.811Z,6.18
2022-11-29T10:55:43.511Z,6.13
2022-11-29T10:58:17.032Z,5.93
2022-11-29T11:00:51.806Z,6.75
2022-11-29T11:03:42.572Z,6.85
2022-11-29T11:06:15.840Z,7.15
2022-11-29T11:08:46.706Z,6.18
2022-11-29T11:11:15.392Z,7.72
2022-11-29T11:13:42.699Z,6.70
2022-11-29T11:16:16.161Z,5.72
2022-11-29T11:18:43.821Z,6.25
2022-11-29T11:21:13.237Z,6.50
2022-11-29T11:23:55.068Z,6.95
2022-11-29T11:26:23.038Z,7.20
2022-11-29T11:29:02.706Z,7.70
2022-11-29T11:31:39.956Z,7.75
2022-11-29T11:34:35.405Z,8.25
2022-11-29T11:37:32.406Z,9.77
2022-11-29T11:40:19.530Z,8.45
2022-11-29T11:42:46.766Z,9.02
2022-11-29T11:45:13.230Z,9.27
2022-11-29T11:47:46.512Z,8.98
2022-11-29T11:50:37.436Z,8.77
2022-11-29T11:53:17.811Z,8.27
2022-11-29T11:55:54.004Z,9.27
2022-11-29T11:58:45.293Z,8.27
2022-11-29T12:01:11.747Z,8.15
2022-11-29T12:03:57.055Z,8.07
2022-11-29T12:06:32.638Z,7.78
2022-11-29T12:09:08.505Z,7.50
2022-11-29T12:11:53.225Z,8.07
2022-11-29T12:14:37.271Z,7.22
2022-11-29T12:17:20.183Z,6.95
2022-11-29T12:19:58.433Z,7.68
2022-11-29T12:22:32.188Z,8.88
2022-11-29T12:25:05.037Z,8.55
2022-11-29T12:27:32.006Z,8.23
2022-11-29T12:29:58.576Z,8.30
2022-11-29T12:32:33.913Z,8.55
2022-11-29T12:35:06.983Z,7.80
2022-11-29T12:37:55.667Z,7.68
2022-11-29T12:40:44.480Z,8.48
2022-11-29T12:43:37.170Z,9.00
2022-11-29T12:46:27.209Z,9.32
2022-11-29T12:49:15.725Z,12.05
2022-11-29T12:52:10.887Z,8.30
2022-11-29T12:55:16.174Z,6.90
2022-11-29T12:58:04.639Z,7.20
2022-11-29T13:00:50.275Z,7.22
2022-11-29T13:03:25.531Z,8.95
2022-11-29T13:06:23.772Z,7.93
2022-11-29T13:09:28.193Z,8.10
2022-11-29T13:12:17.250Z,7.78
2022-11-29T13:14:59.376Z,6.85
2022-11-29T13:17:50.437Z,6.22
2022-11-29T13:20:26.284Z,7.30
2022-11-29T13:23:20.752Z,7.63
2022-11-29T13:25:54.472Z,5.90
2022-11-29T13:28:33.505Z,6.07
2022-11-29T13:31:07.424Z,5.88
2022-11-29T13:33:53.564Z,7.47
2022-11-29T13:36:34.396Z,8.68
2022-11-29T13:39:16.154Z,8.48
2022-11-29T13:42:01.358Z,9.07
2022-11-29T13:44:35.469Z,7.18
2022-11-29T13:47:11.045Z,6.72
2022-11-29T13:49:54.726Z,8.40
2022-11-29T13:52:47.734Z,8.45
2022-11-29T13:55:14.656Z,8.85
2022-11-29T13:58:16.375Z,14.40
2022-11-29T14:00:44.055Z,11.68
2022-11-29T14:03:19.730Z,10.77
2022-11-29T14:06:03.870Z,11.27
2022-11-29T14:09:02.068Z,9.57
2022-11-29T14:11:36.507Z,10.75
2022-11-29T14:14:17.606Z,11.82
2022-11-29T14:16:44.055Z,10.50
2022-11-29T14:19:10.498Z,10.95
2022-11-29T14:21:55.971Z,10.50
2022-11-29T14:27:11.135Z,10.40
2022-11-29T14:29:53.952Z,10.82
2022-11-29T14:32:34.433Z,9.98
2022-11-29T14:35:12.846Z,8.85
2022-11-29T14:38:23.967Z,8.93
2022-11-29T14:41:03.231Z,8.77
2022-11-29T14:43:34.689Z,8.60
2022-11-29T14:46:16.214Z,8.52
2022-11-29T14:48:55.521Z,8.10
2022-11-29T14:51:24.243Z,7.45
2022-11-29T14:54:12.205Z,6.80
2022-11-29T14:56:44.495Z,7.05
2022-11-29T14:59:44.966Z,6.68
2022-11-29T15:02:26.784Z,6.70
2022-11-29T15:04:56.844Z,6.65
2022-11-29T15:07:28.855Z,6.90
2022-11-29T15:10:00.677Z,5.43
2022-11-29T15:12:30.519Z,6.78
2022-11-29T15:15:23.961Z,5.45
2022-11-29T15:18:11.289Z,5.25
2022-11-29T15:21:10.233Z,4.90
2022-11-29T15:23:43.988Z,5.38
2022-11-29T15:26:25.247Z,4.60
2022-11-29T15:28:51.726Z,4.60
2022-11-29T15:31:20.693Z,3.80
2022-11-29T15:33:49.259Z,4.30
2022-11-29T15:36:24.236Z,4.13
2022-11-29T15:38:56.827Z,5.25
2022-11-29T15:41:31.980Z,3.50
2022-11-29T15:44:22.557Z,4.00
2022-11-29T15:46:49.625Z,4.40
2022-11-29T15:49:18.217Z,4.93
2022-11-29T15:51:50.224Z,3.85
2022-11-29T15:54:34.749Z,3.75
2022-11-29T15:57:05.173Z,3.50
2022-11-29T15:59:31.730Z,3.08
2022-11-29T16:02:02.744Z,3.50
2022-11-29T16:04:29.496Z,3.22
2022-11-29T16:06:57.703Z,3.00
2022-11-29T16:09:40.529Z,2.95
2022-11-29T16:12:14.014Z,3.15
2022-11-29T16:14:58.692Z,2.67
2022-11-29T16:17:28.274Z,2.30
2022-11-29T16:20:25.441Z,2.05
2022-11-29T16:23:08.773Z,2.80
2022-11-29T16:25:53.865Z,2.20
2022-11-29T16:28:20.962Z,2.05
2022-11-29T16:30:48.248Z,1.52
2022-11-29T16:33:23.816Z,1.60
2022-11-29T16:35:51.997Z,1.67
2022-11-29T16:38:23.004Z,2.38
2022-11-29T16:41:24.866Z,1.88
2022-11-29T16:43:55.517Z,1.67
2022-11-29T16:46:22.589Z,1.73
2022-11-29T16:48:50.195Z,2.55
2022-11-29T16:51:27.312Z,1.50
2022-11-29T16:53:54.364Z,1.70
2022-11-29T16:56:23.505Z,2.00
2022-11-29T16:59:20.531Z,2.85
2022-11-29T17:01:47.855Z,2.90
2022-11-29T17:04:24.238Z,2.72
2022-11-29T17:06:53.800Z,2.53
2022-11-29T17:09:24.340Z,3.30
2022-11-29T17:11:53.121Z,4.15
2022-11-29T17:14:19.720Z,4.45
2022-11-29T17:16:49.313Z,4.20
2022-11-29T17:19:16.238Z,5.07
2022-11-29T17:21:42.781Z,5.80
2022-11-29T17:24:15.691Z,5.10
2022-11-29T17:26:43.349Z,3.97
2022-11-29T17:29:11.242Z,4.40
2022-11-29T17:31:37.872Z,3.88
2022-11-29T17:34:04.802Z,3.35
2022-11-29T17:36:31.442Z,4.03
2022-11-29T17:38:59.873Z,3.15
2022-11-29T17:41:28.220Z,3.30
2022-11-29T17:43:57.041Z,2.90
2022-11-29T17:46:27.016Z,2.55
2022-11-29T17:48:54.436Z,3.00
2022-11-29T17:51:54.366Z,2.38
2022-11-29T17:54:11.148Z,2.75
2022-11-29T17:56:37.943Z,2.45
2022-11-29T17:59:05.864Z,2.53
2022-11-29T18:01:34.733Z,4.38
2022-11-29T18:04:02.536Z,3.10
2022-11-29T18:06:33.489Z,2.10
2022-11-29T18:09:01.529Z,2.33
2022-11-29T18:11:46.500Z,2.53
2022-11-29T18:14:19.825Z,2.85
2022-11-29T18:16:46.568Z,2.20
2022-11-29T18:19:15.868Z,2.00
2022-11-29T18:21:42.668Z,2.55
2022-11-29T18:24:09.363Z,2.10
2022-11-29T18:26:37.546Z,2.17
2022-11-29T18:29:05.947Z,1.75
2022-11-29T18:31:35.490Z,2.70
2022-11-29T18:34:09.811Z,3.05
2022-11-29T18:36:43.065Z,2.03
2022-11-29T18:39:14.126Z,2.65
2022-11-29T18:41:43.403Z,2.53
2022-11-29T18:44:13.034Z,2.13
2022-11-29T18:46:41.201Z,3.60
2022-11-29T18:49:09.391Z,3.35
2022-11-29T18:51:37.509Z,2.55
2022-11-29T18:54:05.210Z,2.30
2022-11-29T18:56:34.576Z,2.25
2022-11-29T18:59:07.115Z,2.35
2022-11-29T19:01:37.841Z,2.63
2022-11-29T19:04:04.832Z,2.80
2022-11-29T19:06:39.421Z,2.50
2022-11-29T19:09:10.723Z,2.83
2022-11-29T19:11:37.726Z,3.60
2022-11-29T19:14:06.483Z,4.43
2022-11-29T19:16:34.638Z,3.60
2022-11-29T19:19:02.054Z,3.30
2022-11-29T19:21:31.858Z,3.40
2022-11-29T19:24:04.566Z,3.83
2022-11-29T19:26:32.559Z,2.50
2022-11-29T19:29:00.699Z,3.30
2022-11-29T19:31:27.932Z,3.75
2022-11-29T19:33:55.301Z,3.78
2022-11-29T19:36:24.814Z,3.25
2022-11-29T19:38:54.158Z,3.60
2022-11-29T19:41:24.365Z,4.55
2022-11-29T19:43:52.046Z,4.85
2022-11-29T19:46:24.871Z,4.25
2022-11-29T19:48:56.693Z,3.97
2022-11-29T19:51:24.245Z,4.88
2022-11-29T19:53:55.627Z,5.53
2022-11-29T19:56:23.539Z,5.20
2022-11-29T19:58:50.837Z,3.17
2022-11-29T20:01:23.272Z,2.63
2022-11-29T20:03:50.779Z,3.50
2022-11-29T20:06:20.128Z,2.60
2022-11-29T20:08:47.736Z,2.92
2022-11-29T20:11:20.982Z,3.13
2022-11-29T20:13:59.187Z,3.80
2022-11-29T20:16:27.653Z,3.38
2022-11-29T20:18:54.913Z,3.42
2022-11-29T20:21:24.109Z,3.83
2022-11-29T20:23:59.044Z,3.38
2022-11-29T20:26:26.662Z,3.45
2022-11-29T20:28:53.196Z,2.50
2022-11-29T20:31:22.848Z,3.15
2022-11-29T20:33:52.184Z,2.90
2022-11-29T20:36:33.826Z,3.08
2022-11-29T20:39:13.557Z,3.00
2022-11-29T20:42:06.881Z,4.88
2022-11-29T20:44:53.805Z,3.58
2022-11-29T20:47:26.372Z,4.45
2022-11-29T20:49:53.570Z,2.97
2022-11-29T20:52:43.003Z,3.85
2022-11-29T20:55:10.056Z,3.10
2022-11-29T20:57:38.391Z,3.40
2022-11-29T21:00:11.306Z,4.57
2022-11-29T21:02:38.274Z,4.47
2022-11-29T21:05:05.573Z,4.68
2022-11-29T21:07:32.209Z,4.55
2022-11-29T21:10:01.360Z,6.32
2022-11-29T21:12:29.874Z,4.70
2022-11-29T21:14:56.992Z,4.47
2022-11-29T21:17:27.629Z,5.68
2022-11-29T21:19:58.696Z,5.80
2022-11-29T21:22:41.243Z,5.53
2022-11-29T21:25:32.028Z,5.85
2022-11-29T21:28:00.479Z,5.20
2022-11-29T21:30:27.290Z,6.88
2022-11-29T21:32:54.650Z,5.00
2022-11-29T21:35:21.216Z,5.45
2022-11-29T21:37:48.170Z,5.75
2022-11-29T21:40:15.179Z,5.95
2022-11-29T21:42:41.751Z,6.13
2022-11-29T21:45:14.846Z,6.20
2022-11-29T21:47:43.370Z,6.65
2022-11-29T21:50:10.878Z,5.40
2022-11-29T21:52:37.981Z,5.40
2022-11-29T21:55:05.423Z,6.18
2022-11-29T21:57:31.992Z,5.75
2022-11-29T21:59:58.494Z,5.65
2022-11-29T22:02:25.117Z,6.00
2022-11-29T22:04:51.760Z,5.75
2022-11-29T22:07:18.358Z,5.43
2022-11-29T22:09:44.918Z,6.40
2022-11-29T22:12:32.655Z,5.97
2022-11-29T22:14:58.853Z,6.57
2022-11-29T22:17:25.497Z,6.78
2022-11-29T22:19:52.024Z,6.38
2022-11-29T22:22:18.713Z,6.15
2022-11-29T22:24:45.474Z,6.80
2022-11-29T22:27:12.226Z,7.13
2022-11-29T22:29:38.734Z,7.32
2022-11-29T22:32:06.252Z,7.38
2022-11-29T22:34:32.810Z,8.00
2022-11-29T22:36:59.813Z,7.55
2022-11-29T22:39:26.418Z,9.32
2022-11-29T22:41:55.046Z,8.27
2022-11-29T22:44:25.889Z,8.27
2022-11-29T22:46:52.517Z,8.63
2022-11-29T22:49:19.254Z,9.23
2022-11-29T22:51:45.767Z,8.95
2022-11-29T22:54:15.474Z,8.55
2022-11-29T22:56:44.020Z,8.50
2022-11-29T22:59:11.625Z,10.40
2022-11-29T23:01:39.943Z,9.55
2022-11-29T23:04:08.110Z,8.70
2022-11-29T23:06:40.976Z,8.32
2022-11-29T23:09:10.749Z,9.38
2022-11-29T23:11:38.132Z,8.05
2022-11-29T23:14:05.457Z,8.52
2022-11-29T23:16:33.034Z,8.63
2022-11-29T23:19:00.207Z,8.02
2022-11-29T23:21:29.907Z,6.97
2022-11-29T23:23:57.108Z,7.70
2022-11-29T23:26:25.265Z,8.80
2022-11-29T23:28:52.636Z,7.30
2022-11-29T23:31:19.825Z,7.70
2022-11-29T23:33:46.393Z,7.50
2022-11-29T23:36:13.972Z,8.32
2022-11-29T23:38:40.540Z,6.75
2022-11-29T23:41:07.988Z,7.78
2022-11-29T23:43:37.368Z,7.90
2022-11-29T23:46:17.785Z,8.20
2022-11-29T23:48:45.041Z,8.82
2022-11-29T23:51:12.875Z,8.95
2022-11-29T23:53:39.869Z,8.35
2022-11-29T23:56:11.029Z,8.07
2022-11-29T23:58:38.148Z,9.43
